sensor_id;sensor_type;location;lat;lon;timestamp;pressure;altitude;pressure_sealevel;temperature;humidity
60611;BME280;46439;51.164;13.572;2023-02-03T00:00:08;100774.73;;;5.10;89.95
60611;BME280;46439;51.164;13.572;2023-02-03T00:02:36;100773.77;;;5.04;89.67
60611;BME280;46439;51.164;13.572;2023-02-03T00:05:06;100769.48;;;5.02;89.77
60611;BME280;46439;51.164;13.572;2023-02-03T00:07:36;100765.10;;;5.01;89.63
60611;BME280;46439;51.164;13.572;2023-02-03T00:10:06;100763.29;;;4.97;89.67
60611;BME280;46439;51.164;13.572;2023-02-03T00:12:35;100764.37;;;4.90;89.44
60611;BME280;46439;51.164;13.572;2023-02-03T00:15:04;100766.34;;;4.85;89.39
60611;BME280;46439;51.164;13.572;2023-02-03T00:17:33;100764.19;;;4.78;89.10
60611;BME280;46439;51.164;13.572;2023-02-03T00:20:12;100763.62;;;4.74;88.93
60611;BME280;46439;51.164;13.572;2023-02-03T00:22:41;100761.29;;;4.70;88.72
60611;BME280;46439;51.164;13.572;2023-02-03T00:25:10;100757.61;;;4.67;88.85
60611;BME280;46439;51.164;13.572;2023-02-03T00:27:39;100758.64;;;4.65;88.78
60611;BME280;46439;51.164;13.572;2023-02-03T00:30:09;100756.63;;;4.61;88.79
60611;BME280;46439;51.164;13.572;2023-02-03T00:32:38;100749.75;;;4.61;88.80
60611;BME280;46439;51.164;13.572;2023-02-03T00:35:08;100745.39;;;4.59;88.74
60611;BME280;46439;51.164;13.572;2023-02-03T00:37:56;100739.48;;;4.55;88.71
60611;BME280;46439;51.164;13.572;2023-02-03T00:40:26;100733.20;;;4.58;88.94
60611;BME280;46439;51.164;13.572;2023-02-03T00:42:54;100733.94;;;4.62;89.09
60611;BME280;46439;51.164;13.572;2023-02-03T00:45:23;100725.42;;;4.61;88.90
60611;BME280;46439;51.164;13.572;2023-02-03T00:47:52;100717.58;;;4.59;89.10
60611;BME280;46439;51.164;13.572;2023-02-03T00:50:20;100710.23;;;4.55;89.01
60611;BME280;46439;51.164;13.572;2023-02-03T00:52:49;100705.58;;;4.51;88.87
60611;BME280;46439;51.164;13.572;2023-02-03T00:55:18;100699.83;;;4.47;88.65
60611;BME280;46439;51.164;13.572;2023-02-03T00:57:46;100697.98;;;4.43;88.56
60611;BME280;46439;51.164;13.572;2023-02-03T01:00:16;100691.08;;;4.47;88.80
60611;BME280;46439;51.164;13.572;2023-02-03T01:02:45;100687.13;;;4.50;88.79
60611;BME280;46439;51.164;13.572;2023-02-03T01:05:14;100680.62;;;4.53;88.91
60611;BME280;46439;51.164;13.572;2023-02-03T01:07:42;100680.09;;;4.62;89.19
60611;BME280;46439;51.164;13.572;2023-02-03T01:10:12;100677.65;;;4.64;89.32
60611;BME280;46439;51.164;13.572;2023-02-03T01:12:42;100668.10;;;4.63;89.23
60611;BME280;46439;51.164;13.572;2023-02-03T01:15:11;100657.20;;;4.65;89.17
60611;BME280;46439;51.164;13.572;2023-02-03T01:17:39;100650.01;;;4.68;89.21
60611;BME280;46439;51.164;13.572;2023-02-03T01:20:10;100645.24;;;4.63;89.20
60611;BME280;46439;51.164;13.572;2023-02-03T01:22:44;100644.23;;;4.51;88.94
60611;BME280;46439;51.164;13.572;2023-02-03T01:25:13;100638.91;;;4.37;88.65
60611;BME280;46439;51.164;13.572;2023-02-03T01:27:41;100633.46;;;4.25;88.18
60611;BME280;46439;51.164;13.572;2023-02-03T01:30:11;100624.20;;;4.21;88.08
60611;BME280;46439;51.164;13.572;2023-02-03T01:32:40;100615.55;;;4.13;88.21
60611;BME280;46439;51.164;13.572;2023-02-03T01:35:09;100606.02;;;4.05;87.83
60611;BME280;46439;51.164;13.572;2023-02-03T01:37:37;100591.66;;;3.99;87.82
60611;BME280;46439;51.164;13.572;2023-02-03T01:40:08;100585.69;;;3.94;87.74
60611;BME280;46439;51.164;13.572;2023-02-03T01:42:37;100593.44;;;3.91;87.74
60611;BME280;46439;51.164;13.572;2023-02-03T01:45:07;100592.85;;;3.87;87.95
60611;BME280;46439;51.164;13.572;2023-02-03T01:47:40;100596.92;;;3.84;88.00
60611;BME280;46439;51.164;13.572;2023-02-03T01:50:14;100598.95;;;3.83;87.90
60611;BME280;46439;51.164;13.572;2023-02-03T01:52:46;100598.42;;;3.91;88.07
60611;BME280;46439;51.164;13.572;2023-02-03T01:55:18;100590.29;;;3.99;88.28
60611;BME280;46439;51.164;13.572;2023-02-03T01:57:51;100584.73;;;4.01;88.35
60611;BME280;46439;51.164;13.572;2023-02-03T02:00:22;100568.00;;;4.06;88.46
60611;BME280;46439;51.164;13.572;2023-02-03T02:02:51;100559.27;;;4.13;88.58
60611;BME280;46439;51.164;13.572;2023-02-03T02:05:24;100550.66;;;4.22;88.97
60611;BME280;46439;51.164;13.572;2023-02-03T02:07:53;100540.85;;;4.27;89.21
60611;BME280;46439;51.164;13.572;2023-02-03T02:10:22;100538.19;;;4.29;89.10
60611;BME280;46439;51.164;13.572;2023-02-03T02:12:51;100526.20;;;4.32;89.05
60611;BME280;46439;51.164;13.572;2023-02-03T02:15:24;100522.82;;;4.34;89.08
60611;BME280;46439;51.164;13.572;2023-02-03T02:18:06;100524.46;;;4.36;89.05
60611;BME280;46439;51.164;13.572;2023-02-03T02:20:58;100518.71;;;4.36;89.22
60611;BME280;46439;51.164;13.572;2023-02-03T02:26:46;100514.95;;;4.30;88.97
60611;BME280;46439;51.164;13.572;2023-02-03T02:29:57;100510.23;;;4.27;88.76
60611;BME280;46439;51.164;13.572;2023-02-03T02:36:00;100488.54;;;4.33;88.95
60611;BME280;46439;51.164;13.572;2023-02-03T02:38:43;100488.64;;;4.29;88.76
60611;BME280;46439;51.164;13.572;2023-02-03T02:41:17;100480.39;;;4.26;88.79
60611;BME280;46439;51.164;13.572;2023-02-03T02:43:50;100471.75;;;4.25;88.64
60611;BME280;46439;51.164;13.572;2023-02-03T02:46:29;100459.60;;;4.27;88.74
60611;BME280;46439;51.164;13.572;2023-02-03T02:49:02;100452.85;;;4.31;89.12
60611;BME280;46439;51.164;13.572;2023-02-03T02:51:33;100447.33;;;4.37;89.00
60611;BME280;46439;51.164;13.572;2023-02-03T02:54:06;100440.23;;;4.46;89.31
60611;BME280;46439;51.164;13.572;2023-02-03T02:56:37;100430.79;;;4.46;89.34
60611;BME280;46439;51.164;13.572;2023-02-03T02:59:07;100422.04;;;4.42;89.25
60611;BME280;46439;51.164;13.572;2023-02-03T03:01:36;100413.85;;;4.39;88.90
60611;BME280;46439;51.164;13.572;2023-02-03T03:04:06;100408.38;;;4.41;88.96
60611;BME280;46439;51.164;13.572;2023-02-03T03:06:42;100402.08;;;4.42;88.90
60611;BME280;46439;51.164;13.572;2023-02-03T03:09:14;100397.70;;;4.43;88.89
60611;BME280;46439;51.164;13.572;2023-02-03T03:11:46;100393.90;;;4.46;89.14
60611;BME280;46439;51.164;13.572;2023-02-03T03:14:19;100388.09;;;4.49;89.09
60611;BME280;46439;51.164;13.572;2023-02-03T03:16:55;100388.09;;;4.53;89.09
60611;BME280;46439;51.164;13.572;2023-02-03T03:19:30;100384.60;;;4.59;89.47
60611;BME280;46439;51.164;13.572;2023-02-03T03:22:03;100382.50;;;4.61;89.55
60611;BME280;46439;51.164;13.572;2023-02-03T03:24:35;100382.97;;;4.59;89.41
60611;BME280;46439;51.164;13.572;2023-02-03T03:27:09;100384.75;;;4.59;89.38
60611;BME280;46439;51.164;13.572;2023-02-03T03:29:43;100382.61;;;4.59;89.36
60611;BME280;46439;51.164;13.572;2023-02-03T03:32:14;100376.34;;;4.62;89.50
60611;BME280;46439;51.164;13.572;2023-02-03T03:34:43;100369.08;;;4.66;89.47
60611;BME280;46439;51.164;13.572;2023-02-03T03:37:16;100369.89;;;4.67;89.22
60611;BME280;46439;51.164;13.572;2023-02-03T03:39:49;100368.00;;;4.70;89.58
60611;BME280;46439;51.164;13.572;2023-02-03T03:42:23;100366.56;;;4.72;89.59
60611;BME280;46439;51.164;13.572;2023-02-03T03:45:00;100369.10;;;4.75;89.48
60611;BME280;46439;51.164;13.572;2023-02-03T03:47:34;100366.83;;;4.79;89.70
60611;BME280;46439;51.164;13.572;2023-02-03T03:50:08;100367.16;;;4.84;89.56
60611;BME280;46439;51.164;13.572;2023-02-03T03:52:38;100359.36;;;4.88;89.75
60611;BME280;46439;51.164;13.572;2023-02-03T03:55:11;100353.06;;;4.90;89.88
60611;BME280;46439;51.164;13.572;2023-02-03T03:57:44;100340.19;;;4.93;90.04
60611;BME280;46439;51.164;13.572;2023-02-03T04:00:16;100330.73;;;4.97;89.97
60611;BME280;46439;51.164;13.572;2023-02-03T04:02:51;100322.61;;;5.00;89.95
60611;BME280;46439;51.164;13.572;2023-02-03T04:05:21;100313.17;;;5.04;89.85
60611;BME280;46439;51.164;13.572;2023-02-03T04:07:50;100302.07;;;5.07;89.94
60611;BME280;46439;51.164;13.572;2023-02-03T04:10:24;100291.66;;;5.10;89.90
60611;BME280;46439;51.164;13.572;2023-02-03T04:12:54;100290.75;;;5.12;89.91
60611;BME280;46439;51.164;13.572;2023-02-03T04:15:22;100285.41;;;5.15;89.86
60611;BME280;46439;51.164;13.572;2023-02-03T04:17:51;100283.59;;;5.18;89.90
60611;BME280;46439;51.164;13.572;2023-02-03T04:20:19;100279.73;;;5.21;90.05
60611;BME280;46439;51.164;13.572;2023-02-03T04:22:48;100280.46;;;5.25;90.02
60611;BME280;46439;51.164;13.572;2023-02-03T04:25:17;100277.52;;;5.28;90.01
60611;BME280;46439;51.164;13.572;2023-02-03T04:27:46;100280.02;;;5.32;90.22
60611;BME280;46439;51.164;13.572;2023-02-03T04:30:15;100283.92;;;5.34;90.26
60611;BME280;46439;51.164;13.572;2023-02-03T04:32:45;100282.96;;;5.37;90.18
60611;BME280;46439;51.164;13.572;2023-02-03T04:35:14;100276.68;;;5.39;90.24
60611;BME280;46439;51.164;13.572;2023-02-03T04:37:42;100287.64;;;5.43;90.23
60611;BME280;46439;51.164;13.572;2023-02-03T04:40:12;100289.55;;;5.47;90.37
60611;BME280;46439;51.164;13.572;2023-02-03T04:42:41;100283.84;;;5.51;90.43
60611;BME280;46439;51.164;13.572;2023-02-03T04:45:11;100274.80;;;5.54;90.43
60611;BME280;46439;51.164;13.572;2023-02-03T04:47:40;100275.27;;;5.57;90.43
60611;BME280;46439;51.164;13.572;2023-02-03T04:50:09;100271.41;;;5.61;90.48
60611;BME280;46439;51.164;13.572;2023-02-03T04:52:38;100275.13;;;5.63;90.32
60611;BME280;46439;51.164;13.572;2023-02-03T04:55:08;100280.70;;;5.66;90.54
60611;BME280;46439;51.164;13.572;2023-02-03T05:00:32;100286.55;;;5.71;90.64
60611;BME280;46439;51.164;13.572;2023-02-03T05:03:00;100286.95;;;5.74;90.63
60611;BME280;46439;51.164;13.572;2023-02-03T05:05:29;100281.71;;;5.77;90.53
60611;BME280;46439;51.164;13.572;2023-02-03T05:07:57;100268.58;;;5.80;90.59
60611;BME280;46439;51.164;13.572;2023-02-03T05:10:26;100268.77;;;5.84;90.58
60611;BME280;46439;51.164;13.572;2023-02-03T05:12:54;100263.58;;;5.85;90.64
60611;BME280;46439;51.164;13.572;2023-02-03T05:15:23;100251.27;;;5.88;90.67
60611;BME280;46439;51.164;13.572;2023-02-03T05:17:53;100252.73;;;5.89;90.58
60611;BME280;46439;51.164;13.572;2023-02-03T05:20:22;100248.44;;;5.91;90.56
60611;BME280;46439;51.164;13.572;2023-02-03T05:22:50;100240.57;;;5.93;90.60
60611;BME280;46439;51.164;13.572;2023-02-03T05:25:19;100235.77;;;5.95;90.65
60611;BME280;46439;51.164;13.572;2023-02-03T05:27:47;100231.94;;;5.96;90.68
60611;BME280;46439;51.164;13.572;2023-02-03T05:30:16;100223.00;;;5.96;90.63
60611;BME280;46439;51.164;13.572;2023-02-03T05:32:45;100213.81;;;5.99;90.66
60611;BME280;46439;51.164;13.572;2023-02-03T05:35:13;100215.44;;;6.01;90.72
60611;BME280;46439;51.164;13.572;2023-02-03T05:37:44;100218.00;;;6.02;90.80
60611;BME280;46439;51.164;13.572;2023-02-03T05:40:13;100219.17;;;6.05;90.70
60611;BME280;46439;51.164;13.572;2023-02-03T05:43:00;100218.61;;;6.07;90.72
60611;BME280;46439;51.164;13.572;2023-02-03T05:45:29;100212.94;;;6.08;90.80
60611;BME280;46439;51.164;13.572;2023-02-03T05:47:58;100212.80;;;6.10;90.83
60611;BME280;46439;51.164;13.572;2023-02-03T05:50:26;100220.35;;;6.11;90.90
60611;BME280;46439;51.164;13.572;2023-02-03T05:52:57;100227.92;;;6.12;90.90
60611;BME280;46439;51.164;13.572;2023-02-03T05:55:26;100230.40;;;6.14;90.99
60611;BME280;46439;51.164;13.572;2023-02-03T05:57:55;100224.70;;;6.14;90.93
60611;BME280;46439;51.164;13.572;2023-02-03T06:00:24;100217.69;;;6.14;90.82
60611;BME280;46439;51.164;13.572;2023-02-03T06:02:54;100213.71;;;6.15;90.83
60611;BME280;46439;51.164;13.572;2023-02-03T06:05:24;100205.94;;;6.18;90.90
60611;BME280;46439;51.164;13.572;2023-02-03T06:07:52;100209.34;;;6.18;90.98
60611;BME280;46439;51.164;13.572;2023-02-03T06:10:22;100214.00;;;6.20;91.00
60611;BME280;46439;51.164;13.572;2023-02-03T06:12:50;100210.27;;;6.22;90.95
60611;BME280;46439;51.164;13.572;2023-02-03T06:15:19;100195.39;;;6.24;91.02
60611;BME280;46439;51.164;13.572;2023-02-03T06:17:49;100195.69;;;6.26;91.08
60611;BME280;46439;51.164;13.572;2023-02-03T06:20:20;100192.50;;;6.28;90.99
60611;BME280;46439;51.164;13.572;2023-02-03T06:22:48;100185.61;;;6.29;91.03
60611;BME280;46439;51.164;13.572;2023-02-03T06:25:17;100182.31;;;6.30;91.14
60611;BME280;46439;51.164;13.572;2023-02-03T06:27:45;100178.66;;;6.30;91.06
60611;BME280;46439;51.164;13.572;2023-02-03T06:30:15;100178.04;;;6.31;91.09
60611;BME280;46439;51.164;13.572;2023-02-03T06:32:44;100180.52;;;6.34;91.15
60611;BME280;46439;51.164;13.572;2023-02-03T06:35:13;100180.88;;;6.36;91.13
60611;BME280;46439;51.164;13.572;2023-02-03T06:37:41;100176.25;;;6.38;91.12
60611;BME280;46439;51.164;13.572;2023-02-03T06:40:12;100164.18;;;6.40;91.15
60611;BME280;46439;51.164;13.572;2023-02-03T06:42:40;100162.76;;;6.44;91.31
60611;BME280;46439;51.164;13.572;2023-02-03T06:45:12;100159.61;;;6.47;91.37
60611;BME280;46439;51.164;13.572;2023-02-03T06:47:41;100149.52;;;6.48;91.41
60611;BME280;46439;51.164;13.572;2023-02-03T06:50:12;100143.68;;;6.49;91.30
60611;BME280;46439;51.164;13.572;2023-02-03T06:52:41;100137.77;;;6.49;91.25
60611;BME280;46439;51.164;13.572;2023-02-03T06:55:10;100135.41;;;6.49;91.25
60611;BME280;46439;51.164;13.572;2023-02-03T06:57:45;100132.38;;;6.51;91.19
60611;BME280;46439;51.164;13.572;2023-02-03T07:00:16;100128.45;;;6.53;91.39
60611;BME280;46439;51.164;13.572;2023-02-03T07:02:51;100119.92;;;6.54;91.35
60611;BME280;46439;51.164;13.572;2023-02-03T07:05:20;100114.30;;;6.55;91.33
60611;BME280;46439;51.164;13.572;2023-02-03T07:07:48;100111.14;;;6.55;91.28
60611;BME280;46439;51.164;13.572;2023-02-03T07:10:17;100102.11;;;6.56;91.28
60611;BME280;46439;51.164;13.572;2023-02-03T07:12:45;100100.66;;;6.56;91.34
60611;BME280;46439;51.164;13.572;2023-02-03T07:15:14;100093.73;;;6.57;91.45
60611;BME280;46439;51.164;13.572;2023-02-03T07:17:44;100088.45;;;6.58;91.30
60611;BME280;46439;51.164;13.572;2023-02-03T07:20:19;100085.17;;;6.59;91.33
60611;BME280;46439;51.164;13.572;2023-02-03T07:22:52;100088.05;;;6.60;91.49
60611;BME280;46439;51.164;13.572;2023-02-03T07:25:20;100083.02;;;6.62;91.46
60611;BME280;46439;51.164;13.572;2023-02-03T07:27:49;100087.31;;;6.64;91.42
60611;BME280;46439;51.164;13.572;2023-02-03T07:30:18;100085.02;;;6.66;91.47
60611;BME280;46439;51.164;13.572;2023-02-03T07:32:50;100090.34;;;6.68;91.50
60611;BME280;46439;51.164;13.572;2023-02-03T07:35:20;100093.84;;;6.69;91.61
60611;BME280;46439;51.164;13.572;2023-02-03T07:37:49;100087.31;;;6.69;91.61
60611;BME280;46439;51.164;13.572;2023-02-03T07:40:18;100077.44;;;6.72;91.52
60611;BME280;46439;51.164;13.572;2023-02-03T07:42:48;100080.88;;;6.73;91.59
60611;BME280;46439;51.164;13.572;2023-02-03T07:45:18;100078.89;;;6.75;91.72
60611;BME280;46439;51.164;13.572;2023-02-03T07:47:46;100079.80;;;6.77;91.66
60611;BME280;46439;51.164;13.572;2023-02-03T07:50:15;100072.57;;;6.78;91.70
60611;BME280;46439;51.164;13.572;2023-02-03T07:52:43;100077.60;;;6.78;91.71
60611;BME280;46439;51.164;13.572;2023-02-03T07:55:12;100077.41;;;6.78;91.70
60611;BME280;46439;51.164;13.572;2023-02-03T07:57:40;100080.46;;;6.79;91.56
60611;BME280;46439;51.164;13.572;2023-02-03T08:00:13;100077.77;;;6.85;91.73
60611;BME280;46439;51.164;13.572;2023-02-03T08:02:43;100072.95;;;6.81;91.89
60611;BME280;46439;51.164;13.572;2023-02-03T08:05:12;100070.45;;;6.78;91.62
60611;BME280;46439;51.164;13.572;2023-02-03T08:07:41;100062.19;;;6.76;91.69
60611;BME280;46439;51.164;13.572;2023-02-03T08:10:12;100065.54;;;6.75;91.49
60611;BME280;46439;51.164;13.572;2023-02-03T08:12:40;100061.20;;;6.73;91.58
60611;BME280;46439;51.164;13.572;2023-02-03T08:15:14;100060.79;;;6.70;91.44
60611;BME280;46439;51.164;13.572;2023-02-03T08:17:43;100057.54;;;6.67;91.45
60611;BME280;46439;51.164;13.572;2023-02-03T08:20:12;100054.73;;;6.65;91.40
60611;BME280;46439;51.164;13.572;2023-02-03T08:22:41;100052.89;;;6.61;91.35
60611;BME280;46439;51.164;13.572;2023-02-03T08:25:11;100054.23;;;6.59;91.23
60611;BME280;46439;51.164;13.572;2023-02-03T08:27:40;100052.46;;;6.57;91.24
60611;BME280;46439;51.164;13.572;2023-02-03T08:30:12;100061.33;;;6.55;91.32
60611;BME280;46439;51.164;13.572;2023-02-03T08:32:41;100053.44;;;6.54;91.30
60611;BME280;46439;51.164;13.572;2023-02-03T08:35:09;100044.90;;;6.51;91.29
60611;BME280;46439;51.164;13.572;2023-02-03T08:37:38;100040.66;;;6.51;91.24
60611;BME280;46439;51.164;13.572;2023-02-03T08:40:08;100040.15;;;6.53;91.27
60611;BME280;46439;51.164;13.572;2023-02-03T08:42:37;100030.95;;;6.53;91.52
60611;BME280;46439;51.164;13.572;2023-02-03T08:45:07;100029.73;;;6.55;91.25
60611;BME280;46439;51.164;13.572;2023-02-03T08:47:35;100026.09;;;6.54;91.31
60611;BME280;46439;51.164;13.572;2023-02-03T08:50:05;100029.89;;;6.53;91.28
60611;BME280;46439;51.164;13.572;2023-02-03T08:52:34;100029.08;;;6.52;91.42
60611;BME280;46439;51.164;13.572;2023-02-03T08:55:04;100022.59;;;6.53;91.30
60611;BME280;46439;51.164;13.572;2023-02-03T08:57:34;100018.48;;;6.53;91.29
60611;BME280;46439;51.164;13.572;2023-02-03T09:00:05;100023.42;;;6.56;91.45
60611;BME280;46439;51.164;13.572;2023-02-03T09:02:34;100017.06;;;6.57;91.49
60611;BME280;46439;51.164;13.572;2023-02-03T09:05:03;100011.22;;;6.56;91.48
60611;BME280;46439;51.164;13.572;2023-02-03T09:07:32;100005.72;;;6.56;91.47
60611;BME280;46439;51.164;13.572;2023-02-03T09:10:00;100003.79;;;6.57;91.49
60611;BME280;46439;51.164;13.572;2023-02-03T09:12:29;99993.26;;;6.57;91.48
60611;BME280;46439;51.164;13.572;2023-02-03T09:14:57;99992.73;;;6.59;91.58
60611;BME280;46439;51.164;13.572;2023-02-03T09:17:26;99985.98;;;6.58;91.51
60611;BME280;46439;51.164;13.572;2023-02-03T09:19:55;99981.70;;;6.58;91.54
60611;BME280;46439;51.164;13.572;2023-02-03T09:22:23;99985.30;;;6.58;91.42
60611;BME280;46439;51.164;13.572;2023-02-03T09:24:52;99978.41;;;6.57;91.39
60611;BME280;46439;51.164;13.572;2023-02-03T09:27:20;99981.32;;;6.57;91.53
60611;BME280;46439;51.164;13.572;2023-02-03T09:29:48;99980.48;;;6.56;91.55
60611;BME280;46439;51.164;13.572;2023-02-03T09:32:17;99973.23;;;6.55;91.59
60611;BME280;46439;51.164;13.572;2023-02-03T09:34:45;99961.79;;;6.55;91.57
60611;BME280;46439;51.164;13.572;2023-02-03T09:37:14;99954.48;;;6.55;91.61
60611;BME280;46439;51.164;13.572;2023-02-03T09:39:42;99942.64;;;6.55;91.66
60611;BME280;46439;51.164;13.572;2023-02-03T09:42:35;99925.02;;;6.56;91.60
60611;BME280;46439;51.164;13.572;2023-02-03T09:45:19;99910.46;;;6.57;91.56
60611;BME280;46439;51.164;13.572;2023-02-03T09:47:48;99907.30;;;6.58;91.72
60611;BME280;46439;51.164;13.572;2023-02-03T09:50:22;99900.54;;;6.58;91.64
60611;BME280;46439;51.164;13.572;2023-02-03T09:52:52;99895.73;;;6.58;91.74
60611;BME280;46439;51.164;13.572;2023-02-03T09:55:27;99891.25;;;6.58;91.82
60611;BME280;46439;51.164;13.572;2023-02-03T09:58:04;99888.78;;;6.59;91.68
60611;BME280;46439;51.164;13.572;2023-02-03T10:00:35;99883.70;;;6.62;91.78
60611;BME280;46439;51.164;13.572;2023-02-03T10:03:16;99890.77;;;6.64;91.94
60611;BME280;46439;51.164;13.572;2023-02-03T10:06:02;99885.70;;;6.67;91.97
60611;BME280;46439;51.164;13.572;2023-02-03T10:08:47;99883.88;;;6.71;92.06
60611;BME280;46439;51.164;13.572;2023-02-03T10:11:27;99872.30;;;6.73;92.00
60611;BME280;46439;51.164;13.572;2023-02-03T10:14:10;99870.38;;;6.77;92.21
60611;BME280;46439;51.164;13.572;2023-02-03T10:16:52;99868.48;;;6.80;92.19
60611;BME280;46439;51.164;13.572;2023-02-03T10:19:26;99856.98;;;6.82;92.25
60611;BME280;46439;51.164;13.572;2023-02-03T10:22:01;99856.54;;;6.84;92.28
60611;BME280;46439;51.164;13.572;2023-02-03T10:24:39;99856.77;;;6.86;92.21
60611;BME280;46439;51.164;13.572;2023-02-03T10:27:10;99850.82;;;6.86;92.23
60611;BME280;46439;51.164;13.572;2023-02-03T10:29:43;99842.29;;;6.87;92.28
60611;BME280;46439;51.164;13.572;2023-02-03T10:32:13;99831.52;;;6.89;92.36
60611;BME280;46439;51.164;13.572;2023-02-03T10:34:43;99831.70;;;6.92;92.32
60611;BME280;46439;51.164;13.572;2023-02-03T10:37:21;99822.30;;;6.96;92.35
60611;BME280;46439;51.164;13.572;2023-02-03T10:39:52;99812.80;;;6.99;92.44
60611;BME280;46439;51.164;13.572;2023-02-03T10:42:21;99808.63;;;7.03;92.37
60611;BME280;46439;51.164;13.572;2023-02-03T10:44:55;99798.95;;;7.08;92.60
60611;BME280;46439;51.164;13.572;2023-02-03T10:47:30;99797.41;;;7.15;92.76
60611;BME280;46439;51.164;13.572;2023-02-03T10:50:05;99790.27;;;7.22;92.94
60611;BME280;46439;51.164;13.572;2023-02-03T10:52:35;99799.61;;;7.26;93.01
60611;BME280;46439;51.164;13.572;2023-02-03T10:55:27;99793.29;;;7.32;92.91
60611;BME280;46439;51.164;13.572;2023-02-03T10:57:59;99785.52;;;7.36;93.03
60611;BME280;46439;51.164;13.572;2023-02-03T11:00:34;99781.51;;;7.40;93.19
60611;BME280;46439;51.164;13.572;2023-02-03T11:03:06;99774.34;;;7.44;93.03
60611;BME280;46439;51.164;13.572;2023-02-03T11:05:35;99773.80;;;7.47;93.17
60611;BME280;46439;51.164;13.572;2023-02-03T11:08:04;99781.41;;;7.51;93.10
60611;BME280;46439;51.164;13.572;2023-02-03T11:10:40;99777.07;;;7.55;93.15
60611;BME280;46439;51.164;13.572;2023-02-03T11:13:27;99767.56;;;7.60;93.07
60611;BME280;46439;51.164;13.572;2023-02-03T11:15:59;99769.83;;;7.64;93.14
60611;BME280;46439;51.164;13.572;2023-02-03T11:18:50;99760.02;;;7.67;93.30
60611;BME280;46439;51.164;13.572;2023-02-03T11:21:21;99754.16;;;7.70;93.26
60611;BME280;46439;51.164;13.572;2023-02-03T11:24:03;99744.63;;;7.72;93.35
60611;BME280;46439;51.164;13.572;2023-02-03T11:26:36;99757.58;;;7.73;93.28
60611;BME280;46439;51.164;13.572;2023-02-03T11:29:15;99761.83;;;7.72;93.08
60611;BME280;46439;51.164;13.572;2023-02-03T11:31:48;99782.97;;;7.70;93.03
60611;BME280;46439;51.164;13.572;2023-02-03T11:34:20;99769.66;;;7.67;92.94
60611;BME280;46439;51.164;13.572;2023-02-03T11:36:53;99769.92;;;7.66;93.00
60611;BME280;46439;51.164;13.572;2023-02-03T11:39:26;99750.04;;;7.63;93.05
60611;BME280;46439;51.164;13.572;2023-02-03T11:41:56;99755.35;;;7.61;92.88
60611;BME280;46439;51.164;13.572;2023-02-03T11:44:27;99751.71;;;7.59;92.82
60611;BME280;46439;51.164;13.572;2023-02-03T11:47:01;99735.64;;;7.59;92.87
60611;BME280;46439;51.164;13.572;2023-02-03T11:49:48;99738.83;;;7.58;92.90
60611;BME280;46439;51.164;13.572;2023-02-03T11:55:38;99710.98;;;7.57;92.90
60611;BME280;46439;51.164;13.572;2023-02-03T11:58:24;99690.84;;;7.56;92.84
60611;BME280;46439;51.164;13.572;2023-02-03T12:01:04;99669.68;;;7.55;92.92
60611;BME280;46439;51.164;13.572;2023-02-03T12:04:00;99646.27;;;7.57;92.93
60611;BME280;46439;51.164;13.572;2023-02-03T12:06:55;99630.63;;;7.61;92.96
60611;BME280;46439;51.164;13.572;2023-02-03T12:09:27;99628.42;;;7.65;92.92
60611;BME280;46439;51.164;13.572;2023-02-03T12:12:16;99650.75;;;7.67;93.05
60611;BME280;46439;51.164;13.572;2023-02-03T12:14:59;99673.69;;;7.67;93.08
60611;BME280;46439;51.164;13.572;2023-02-03T12:17:42;99677.71;;;7.68;93.00
60611;BME280;46439;51.164;13.572;2023-02-03T12:20:24;99679.87;;;7.68;93.21
60611;BME280;46439;51.164;13.572;2023-02-03T12:23:01;99674.73;;;7.69;93.23
60611;BME280;46439;51.164;13.572;2023-02-03T12:25:38;99686.08;;;7.70;93.24
60611;BME280;46439;51.164;13.572;2023-02-03T12:28:20;99678.33;;;7.72;93.07
60611;BME280;46439;51.164;13.572;2023-02-03T12:30:57;99664.29;;;7.73;93.36
60611;BME280;46439;51.164;13.572;2023-02-03T12:33:32;99663.04;;;7.75;93.17
60611;BME280;46439;51.164;13.572;2023-02-03T12:36:07;99664.91;;;7.75;93.19
60611;BME280;46439;51.164;13.572;2023-02-03T12:38:43;99655.02;;;7.76;93.38
60611;BME280;46439;51.164;13.572;2023-02-03T12:41:14;99647.00;;;7.77;93.17
60611;BME280;46439;51.164;13.572;2023-02-03T12:43:47;99648.27;;;7.78;93.38
60611;BME280;46439;51.164;13.572;2023-02-03T12:46:20;99654.48;;;7.81;93.21
60611;BME280;46439;51.164;13.572;2023-02-03T12:48:55;99653.31;;;7.83;93.33
60611;BME280;46439;51.164;13.572;2023-02-03T12:51:32;99656.79;;;7.85;93.46
60611;BME280;46439;51.164;13.572;2023-02-03T12:54:06;99666.00;;;7.88;93.54
60611;BME280;46439;51.164;13.572;2023-02-03T12:56:42;99677.06;;;7.89;93.33
60611;BME280;46439;51.164;13.572;2023-02-03T12:59:16;99704.64;;;7.87;93.50
60611;BME280;46439;51.164;13.572;2023-02-03T13:01:50;99721.77;;;7.84;93.47
60611;BME280;46439;51.164;13.572;2023-02-03T13:04:27;99741.70;;;7.81;93.42
60611;BME280;46439;51.164;13.572;2023-02-03T13:07:02;99741.77;;;7.74;93.18
60611;BME280;46439;51.164;13.572;2023-02-03T13:09:38;99739.20;;;7.66;92.94
60611;BME280;46439;51.164;13.572;2023-02-03T13:12:23;99748.48;;;7.55;92.80
60611;BME280;46439;51.164;13.572;2023-02-03T13:14:58;99741.58;;;7.43;92.72
60611;BME280;46439;51.164;13.572;2023-02-03T13:17:36;99745.84;;;7.34;92.78
60611;BME280;46439;51.164;13.572;2023-02-03T13:20:17;99748.40;;;7.26;92.64
60611;BME280;46439;51.164;13.572;2023-02-03T13:22:46;99755.06;;;7.23;92.43
60611;BME280;46439;51.164;13.572;2023-02-03T13:25:19;99748.14;;;7.21;92.56
60611;BME280;46439;51.164;13.572;2023-02-03T13:27:58;99750.13;;;7.20;92.62
60611;BME280;46439;51.164;13.572;2023-02-03T13:30:54;99759.05;;;7.19;92.66